Time,TemperatureF,DewpointF,PressureIn,WindDirection,WindDirectionDegrees,WindSpeedMPH,WindSpeedGustMPH,Humidity,HourlyPrecipIn,Conditions,Clouds,dailyrainin,SolarRadiationWatts/m^2,SoftwareType,DateUTC
2013-11-05 00:00:00,55.0,54.0,-100.00,SE,136,0.0,-999.0,96,0.03,,,0.22,0.000000,,2013-11-05 06:00:00,
2013-11-05 00:42:00,55.0,54.0,-100.00,SE,136,0.0,-999.0,96,0.03,,,0.22,0.000000,,2013-11-05 06:42:00,
2013-11-05 00:52:00,55.0,54.0,-100.00,SE,136,0.0,-999.0,96,0.03,,,0.22,0.000000,,2013-11-05 06:52:00,
2013-11-05 01:00:00,55.0,55.0,-100.00,SW,222,0.0,-999.0,98,0.01,,,0.23,0.000000,,2013-11-05 07:00:00,
2013-11-05 01:43:00,55.0,55.0,-100.00,SW,222,0.0,-999.0,98,0.01,,,0.23,0.000000,,2013-11-05 07:43:00,
2013-11-05 01:52:00,55.0,55.0,-100.00,SW,222,0.0,-999.0,98,0.01,,,0.23,0.000000,,2013-11-05 07:52:00,
2013-11-05 02:00:00,55.0,55.0,-100.00,SW,224,1.0,-999.0,98,0.02,,,0.25,0.000000,,2013-11-05 08:00:00,
2013-11-05 02:42:00,55.0,55.0,-100.00,SW,224,1.0,-999.0,98,0.02,,,0.25,0.000000,,2013-11-05 08:42:00,
2013-11-05 02:52:00,55.0,55.0,-100.00,SW,224,1.0,-999.0,98,0.02,,,0.25,0.000000,,2013-11-05 08:52:00,
2013-11-05 03:00:00,55.0,55.0,-100.00,SSE,157,1.0,-999.0,98,0.09,,,0.34,0.000000,,2013-11-05 09:00:00,
2013-11-05 03:43:00,55.0,55.0,-100.00,SSE,157,1.0,-999.0,98,0.09,,,0.34,0.000000,,2013-11-05 09:43:00,
2013-11-05 03:53:00,55.0,55.0,-100.00,SSE,157,1.0,-999.0,98,0.09,,,0.34,0.000000,,2013-11-05 09:53:00,
2013-11-05 04:00:00,56.0,55.0,-100.00,South,181,0.0,-999.0,98,0.09,,,0.43,0.000000,,2013-11-05 10:00:00,
2013-11-05 04:43:00,56.0,55.0,-100.00,South,181,0.0,-999.0,98,0.09,,,0.43,0.000000,,2013-11-05 10:43:00,
2013-11-05 04:53:00,56.0,55.0,-100.00,South,181,0.0,-999.0,98,0.09,,,0.43,0.000000,,2013-11-05 10:53:00,
2013-11-05 05:00:00,56.0,56.0,-100.00,SSE,151,1.0,-999.0,98,0.01,,,0.44,0.000000,,2013-11-05 11:00:00,
2013-11-05 05:42:00,56.0,56.0,-100.00,SSE,151,1.0,-999.0,98,0.01,,,0.44,0.000000,,2013-11-05 11:42:00,
2013-11-05 05:52:00,56.0,56.0,-100.00,SSE,151,1.0,-999.0,98,0.01,,,0.44,0.000000,,2013-11-05 11:52:00,
2013-11-05 06:00:00,56.0,56.0,-100.00,South,180,0.0,-999.0,97,0.01,,,0.45,1.000000,,2013-11-05 12:00:00,
2013-11-05 06:42:00,56.0,56.0,-100.00,South,180,0.0,-999.0,97,0.01,,,0.45,1.000000,,2013-11-05 12:42:00,
2013-11-05 06:52:00,56.0,56.0,-100.00,South,180,0.0,-999.0,97,0.01,,,0.45,1.000000,,2013-11-05 12:52:00,
2013-11-05 07:00:00,57.0,56.0,-100.00,SE,138,1.0,-999.0,96,0.00,,,0.45,2.000000,,2013-11-05 13:00:00,
2013-11-05 07:42:00,57.0,56.0,-100.00,SE,138,1.0,-999.0,96,0.00,,,0.45,2.000000,,2013-11-05 13:42:00,
2013-11-05 07:52:00,57.0,56.0,-100.00,SE,138,1.0,-999.0,96,0.00,,,0.45,2.000000,,2013-11-05 13:52:00,
2013-11-05 08:00:00,57.0,56.0,-100.00,SSE,156,1.0,-999.0,95,0.00,,,0.45,22.000000,,2013-11-05 14:00:00,
2013-11-05 08:42:00,57.0,56.0,-100.00,SSE,156,1.0,-999.0,95,0.00,,,0.45,22.000000,,2013-11-05 14:42:00,
2013-11-05 08:52:00,57.0,56.0,-100.00,SSE,156,1.0,-999.0,95,0.00,,,0.45,22.000000,,2013-11-05 14:52:00,
2013-11-05 09:00:00,57.0,56.0,-100.00,SSW,192,2.0,-999.0,98,0.06,,,0.51,24.000000,,2013-11-05 15:00:00,
2013-11-05 09:43:00,57.0,56.0,-100.00,SSW,192,2.0,-999.0,98,0.06,,,0.51,24.000000,,2013-11-05 15:43:00,
2013-11-05 09:53:00,57.0,56.0,-100.00,SSW,192,2.0,-999.0,98,0.06,,,0.51,24.000000,,2013-11-05 15:53:00,
2013-11-05 10:00:00,57.0,56.0,-100.00,South,186,1.0,-999.0,98,0.04,,,0.55,64.000000,,2013-11-05 16:00:00,
2013-11-05 10:53:00,57.0,56.0,-100.00,South,186,1.0,-999.0,98,0.04,,,0.55,64.000000,,2013-11-05 16:53:00,
2013-11-05 11:00:00,59.0,58.0,-100.00,South,178,2.0,-999.0,96,0.00,,,0.55,127.000000,,2013-11-05 17:00:00,
2013-11-05 11:42:00,59.0,58.0,-100.00,South,178,2.0,-999.0,96,0.00,,,0.55,127.000000,,2013-11-05 17:42:00,
2013-11-05 11:52:00,59.0,58.0,-100.00,South,178,2.0,-999.0,96,0.00,,,0.55,127.000000,,2013-11-05 17:52:00,
2013-11-05 12:00:00,60.0,59.0,-100.00,South,169,2.0,-999.0,95,0.00,,,0.55,125.000000,,2013-11-05 18:00:00,
2013-11-05 12:52:00,60.0,59.0,-100.00,South,169,2.0,-999.0,95,0.00,,,0.55,125.000000,,2013-11-05 18:52:00,
2013-11-05 13:00:00,61.0,59.0,-100.00,South,170,1.0,-999.0,94,0.00,,,0.55,84.000000,,2013-11-05 19:00:00,
2013-11-05 13:42:00,61.0,59.0,-100.00,South,170,1.0,-999.0,94,0.00,,,0.55,84.000000,,2013-11-05 19:42:00,
2013-11-05 13:52:00,61.0,59.0,-100.00,South,170,1.0,-999.0,94,0.00,,,0.55,84.000000,,2013-11-05 19:52:00,
2013-11-05 14:00:00,63.0,61.0,-100.00,South,186,1.0,-999.0,93,0.00,,,0.53,97.000000,,2013-11-05 20:00:00,
2013-11-05 14:43:00,63.0,61.0,-100.00,South,186,1.0,-999.0,93,0.00,,,0.53,97.000000,,2013-11-05 20:43:00,
2013-11-05 14:53:00,63.0,61.0,-100.00,South,186,1.0,-999.0,93,0.00,,,0.53,97.000000,,2013-11-05 20:53:00,
2013-11-05 15:00:00,63.0,61.0,-100.00,South,178,1.0,-999.0,95,0.00,,,0.47,34.000000,,2013-11-05 21:00:00,
2013-11-05 15:44:00,63.0,61.0,-100.00,South,178,1.0,-999.0,95,0.00,,,0.47,34.000000,,2013-11-05 21:44:00,
2013-11-05 15:54:00,63.0,61.0,-100.00,South,178,1.0,-999.0,95,0.00,,,0.47,34.000000,,2013-11-05 21:54:00,
2013-11-05 16:00:00,62.0,62.0,-100.00,South,180,1.0,-999.0,98,0.07,,,0.53,33.000000,,2013-11-05 22:00:00,
2013-11-05 16:44:00,62.0,62.0,-100.00,South,180,1.0,-999.0,98,0.07,,,0.53,33.000000,,2013-11-05 22:44:00,
2013-11-05 16:53:00,62.0,62.0,-100.00,South,180,1.0,-999.0,98,0.07,,,0.53,33.000000,,2013-11-05 22:53:00,
2013-11-05 17:00:00,62.0,62.0,-100.00,SSE,165,1.0,-999.0,99,0.14,,,0.67,5.000000,,2013-11-05 23:00:00,
2013-11-05 17:42:00,62.0,62.0,-100.00,SSE,165,1.0,-999.0,99,0.14,,,0.67,5.000000,,2013-11-05 23:42:00,
2013-11-05 17:53:00,62.0,62.0,-100.00,SSE,165,1.0,-999.0,99,0.14,,,0.67,5.000000,,2013-11-05 23:53:00,
2013-11-05 18:00:00,63.0,62.0,-100.00,South,182,1.0,-999.0,99,0.19,,,0.83,0.000000,,2013-11-06 00:00:00,
2013-11-05 18:42:00,63.0,62.0,-100.00,South,182,1.0,-999.0,99,0.19,,,0.83,0.000000,,2013-11-06 00:42:00,
2013-11-05 18:52:00,63.0,62.0,-100.00,South,182,1.0,-999.0,99,0.19,,,0.83,0.000000,,2013-11-06 00:52:00,
2013-11-05 19:00:00,63.0,63.0,-100.00,SSW,196,2.0,-999.0,99,0.32,,,1.13,0.000000,,2013-11-06 01:00:00,
2013-11-05 19:42:00,63.0,63.0,-100.00,SSW,196,2.0,-999.0,99,0.32,,,1.13,0.000000,,2013-11-06 01:42:00,
2013-11-05 19:52:00,63.0,63.0,-100.00,SSW,196,2.0,-999.0,99,0.32,,,1.13,0.000000,,2013-11-06 01:52:00,
2013-11-05 20:00:00,63.0,63.0,-100.00,SSW,209,1.0,-999.0,99,0.28,,,1.41,0.000000,,2013-11-06 02:00:00,
2013-11-05 20:42:00,63.0,63.0,-100.00,SSW,209,1.0,-999.0,99,0.28,,,1.41,0.000000,,2013-11-06 02:42:00,
2013-11-05 20:52:00,63.0,63.0,-100.00,SSW,209,1.0,-999.0,99,0.28,,,1.41,0.000000,,2013-11-06 02:52:00,
2013-11-05 21:00:00,64.0,63.0,-100.00,SSW,203,2.0,-999.0,99,0.16,,,1.54,1.000000,,2013-11-06 03:00:00,
2013-11-05 21:44:00,64.0,63.0,-100.00,SSW,203,2.0,-999.0,99,0.16,,,1.54,1.000000,,2013-11-06 03:44:00,
2013-11-05 21:55:00,64.0,63.0,-100.00,SSW,203,2.0,-999.0,99,0.16,,,1.54,1.000000,,2013-11-06 03:55:00,
2013-11-05 22:00:00,64.0,64.0,-100.00,SSW,203,2.0,-999.0,99,0.27,,,1.80,1.000000,,2013-11-06 04:00:00,
2013-11-05 22:43:00,64.0,64.0,-100.00,SSW,203,2.0,-999.0,99,0.27,,,1.80,1.000000,,2013-11-06 04:43:00,
2013-11-05 22:53:00,64.0,64.0,-100.00,SSW,203,2.0,-999.0,99,0.27,,,1.80,1.000000,,2013-11-06 04:53:00,
2013-11-05 23:00:00,64.0,64.0,-100.00,South,189,2.0,-999.0,99,0.52,,,2.31,1.000000,,2013-11-06 05:00:00,
2013-11-05 23:44:00,64.0,64.0,-100.00,South,189,2.0,-999.0,99,0.52,,,2.31,1.000000,,2013-11-06 05:44:00,
2013-11-05 23:53:00,64.0,64.0,-100.00,South,189,2.0,-999.0,99,0.52,,,2.31,1.000000,,2013-11-06 05:53:00,